Time;durP1;ratioP1;P1;durP2;ratioP2;P2;SDS_P1;SDS_P2;PMS_P1;PMS_P2;Temp;Humidity;BMP_temperature;BMP_pressure;BME280_temperature;BME280_humidity;BME280_pressure;Samples;Min_cycle;Max_cycle;Signal;HPM_P1;HPM_P2
2022/04/10 00:01:51;;;;;;;;;;;20.50;99.90;;;;;;4863190;29;19998;-74
2022/04/10 00:04:18;;;;;;;;;;;20.50;99.90;;;;;;4863044;29;20061;-74
2022/04/10 00:06:45;;;;;;;;;;;20.50;99.90;;;;;;4863640;29;20180;-75
2022/04/10 00:09:13;;;;;;;;;;;20.40;99.90;;;;;;4863630;29;19912;-74
2022/04/10 00:11:40;;;;;;;;;;;20.40;99.90;;;;;;4863046;29;19916;-74
2022/04/10 00:14:07;;;;;;;;;;;20.50;99.90;;;;;;4863403;29;20292;-74
2022/04/10 00:16:33;;;;;;;;;;;20.40;99.90;;;;;;4863358;29;20327;-75
2022/04/10 00:19:04;;;;;;;;;;;20.50;99.90;;;;;;4862780;29;20383;-75
2022/04/10 00:21:31;;;;;;;;;;;20.50;99.90;;;;;;4862996;29;20003;-75
2022/04/10 00:23:58;;;;;;;;;;;20.50;99.90;;;;;;4863310;29;19912;-75
2022/04/10 00:26:25;;;;;;;;;;;20.50;99.90;;;;;;4863184;29;19912;-75
2022/04/10 00:28:53;;;;;;;;;;;20.40;99.90;;;;;;4863274;29;20006;-75
2022/04/10 00:31:20;;;;;;;;;;;20.40;99.90;;;;;;4863156;29;19923;-76
2022/04/10 00:33:46;;;;;;;;;;;20.40;99.90;;;;;;4862239;29;19919;-76
2022/04/10 00:36:13;;;;;;;;;;;20.40;99.90;;;;;;4862976;29;20406;-75
2022/04/10 00:38:40;;;;;;;;;;;20.30;99.90;;;;;;4862910;29;20380;-75
2022/04/10 00:41:07;;;;;;;;;;;20.20;99.90;;;;;;4861594;29;19916;-75
2022/04/10 00:43:36;;;;;;;;;;;20.10;99.90;;;;;;4861360;29;19919;-76
2022/04/10 00:46:03;;;;;;;;;;;20.10;99.90;;;;;;4862620;29;19912;-75
2022/04/10 00:48:29;;;;;;;;;;;20.00;99.90;;;;;;4862191;29;20305;-75
2022/04/10 00:53:42;;;;;;;;;;;20.00;99.90;;;;;;4862855;29;19919;-75
2022/04/10 00:56:09;;;;;;;;;;;19.80;99.90;;;;;;4862250;29;20364;-75
2022/04/10 00:58:36;;;;;;;;;;;19.90;99.90;;;;;;4862767;29;20031;-74
2022/04/10 01:01:03;;;;;;;;;;;19.90;99.90;;;;;;4862598;29;19968;-75
2022/04/10 01:03:29;;;;;;;;;;;20.00;99.90;;;;;;4861769;29;19928;-75
2022/04/10 01:05:56;;;;;;;;;;;20.10;99.90;;;;;;4862403;29;19973;-75
2022/04/10 01:08:22;;;;;;;;;;;20.20;99.90;;;;;;4862372;29;19912;-75
2022/04/10 01:10:49;;;;;;;;;;;20.30;99.90;;;;;;4861490;29;19920;-75
2022/04/10 01:13:16;;;;;;;;;;;20.30;99.90;;;;;;4862356;29;19920;-75
2022/04/10 01:15:43;;;;;;;;;;;20.40;99.90;;;;;;4861933;29;20003;-75
2022/04/10 01:18:12;;;;;;;;;;;20.40;99.90;;;;;;4861611;29;19988;-75
2022/04/10 01:20:40;;;;;;;;;;;20.80;99.90;;;;;;4862323;29;19923;-75
2022/04/10 01:23:07;;;;;;;;;;;21.00;99.90;;;;;;4862133;29;19920;-75
2022/04/10 01:25:34;;;;;;;;;;;21.00;99.90;;;;;;4861574;29;19912;-75
2022/04/10 01:28:01;;;;;;;;;;;21.10;99.90;;;;;;4861914;29;19912;-73
2022/04/10 01:30:28;;;;;;;;;;;21.20;99.90;;;;;;4861830;29;20356;-75
2022/04/10 01:32:55;;;;;;;;;;;21.20;99.90;;;;;;4861378;29;19912;-75
2022/04/10 01:35:22;;;;;;;;;;;21.20;99.90;;;;;;4861913;29;20265;-75
2022/04/10 01:37:49;;;;;;;;;;;21.10;99.90;;;;;;4862018;29;19920;-75
2022/04/10 01:40:16;;;;;;;;;;;21.10;99.90;;;;;;4861654;29;19925;-75
2022/04/10 01:42:43;;;;;;;;;;;21.20;99.90;;;;;;4861822;29;19919;-75
2022/04/10 01:45:09;;;;;;;;;;;21.20;99.90;;;;;;4861738;29;20364;-76
2022/04/10 01:47:37;;;;;;;;;;;21.20;99.90;;;;;;4860846;29;19954;-76
2022/04/10 01:50:03;;;;;;;;;;;21.30;99.90;;;;;;4861843;29;19919;-75
2022/04/10 01:52:30;;;;;;;;;;;21.40;99.90;;;;;;4861590;29;19912;-75
2022/04/10 01:54:57;;;;;;;;;;;21.50;99.90;;;;;;4861559;29;19913;-75
2022/04/10 01:57:23;;;;;;;;;;;21.70;99.90;;;;;;4861445;29;19928;-75
2022/04/10 01:59:50;;;;;;;;;;;21.80;99.90;;;;;;4861237;29;19998;-75
2022/04/10 02:02:17;;;;;;;;;;;21.90;99.90;;;;;;4860822;29;19916;-75
2022/04/10 02:04:43;;;;;;;;;;;22.00;99.90;;;;;;4860995;29;19923;-76
2022/04/10 02:07:10;;;;;;;;;;;22.00;99.90;;;;;;4861470;29;20344;-76
2022/04/10 02:09:40;;;;;;;;;;;22.10;99.90;;;;;;4860708;29;20218;-75
2022/04/10 02:12:08;;;;;;;;;;;22.20;99.90;;;;;;4861275;29;20352;-75
2022/04/10 02:14:34;;;;;;;;;;;22.30;99.90;;;;;;4861244;29;19919;-75
2022/04/10 02:17:01;;;;;;;;;;;22.30;99.90;;;;;;4861100;29;19920;-75
2022/04/10 02:19:28;;;;;;;;;;;22.30;99.90;;;;;;4861328;29;19916;-76
2022/04/10 02:21:57;;;;;;;;;;;22.20;99.90;;;;;;4860990;29;19939;-76
2022/04/10 02:24:24;;;;;;;;;;;22.20;99.90;;;;;;4861385;29;19912;-76
2022/04/10 02:26:51;;;;;;;;;;;22.30;99.90;;;;;;4861254;29;19915;-76
2022/04/10 02:29:17;;;;;;;;;;;22.30;99.90;;;;;;4860878;29;19928;-74
2022/04/10 02:31:44;;;;;;;;;;;22.20;99.90;;;;;;4860774;29;19912;-74
2022/04/10 02:34:10;;;;;;;;;;;22.20;99.90;;;;;;4861018;29;19969;-75
2022/04/10 02:36:37;;;;;;;;;;;22.20;99.90;;;;;;4861096;29;20007;-75
2022/04/10 02:39:04;;;;;;;;;;;22.30;99.90;;;;;;4860858;29;20081;-75
2022/04/10 02:41:31;;;;;;;;;;;22.30;99.90;;;;;;4860535;29;19912;-74
2022/04/10 02:43:57;;;;;;;;;;;22.40;99.90;;;;;;4860964;29;19967;-75
2022/04/10 02:46:24;;;;;;;;;;;22.30;99.90;;;;;;4861085;29;19964;-75
2022/04/10 02:48:50;;;;;;;;;;;22.20;99.90;;;;;;4861019;29;19952;-75
2022/04/10 02:51:17;;;;;;;;;;;22.40;99.90;;;;;;4861055;29;20049;-74
2022/04/10 02:53:44;;;;;;;;;;;22.60;99.90;;;;;;4860658;29;20288;-73
2022/04/10 02:56:10;;;;;;;;;;;22.60;99.90;;;;;;4860615;29;19940;-75
2022/04/10 02:58:37;;;;;;;;;;;22.50;99.90;;;;;;4859645;29;20368;-75
2022/04/10 03:01:04;;;;;;;;;;;22.50;99.90;;;;;;4860805;29;19949;-74
2022/04/10 03:03:30;;;;;;;;;;;22.40;99.90;;;;;;4860373;29;19924;-73
2022/04/10 03:05:57;;;;;;;;;;;22.40;99.90;;;;;;4860560;29;20023;-73
2022/04/10 03:08:24;;;;;;;;;;;22.30;99.90;;;;;;4860456;29;19916;-75
2022/04/10 03:10:50;;;;;;;;;;;22.40;99.90;;;;;;4860428;29;19912;-74
2022/04/10 03:13:17;;;;;;;;;;;22.30;99.90;;;;;;4860526;29;20400;-74
2022/04/10 03:15:43;;;;;;;;;;;22.30;99.90;;;;;;4860408;29;19912;-75
2022/04/10 03:18:10;;;;;;;;;;;22.30;99.90;;;;;;4860506;29;19923;-75
2022/04/10 03:20:37;;;;;;;;;;;22.40;99.90;;;;;;4860628;29;19916;-73
2022/04/10 03:23:08;;;;;;;;;;;22.30;99.90;;;;;;4860464;29;19919;-74
2022/04/10 03:25:35;;;;;;;;;;;22.20;99.90;;;;;;4860069;29;19920;-74
2022/04/10 03:28:02;;;;;;;;;;;22.10;99.90;;;;;;4860520;29;19913;-74
2022/04/10 03:30:29;;;;;;;;;;;22.00;99.90;;;;;;4860510;29;20372;-74
2022/04/10 03:32:55;;;;;;;;;;;21.90;99.90;;;;;;4860599;29;20007;-73
2022/04/10 03:35:22;;;;;;;;;;;22.00;99.90;;;;;;4864036;29;20108;-74
2022/04/10 03:37:48;;;;;;;;;;;22.00;99.90;;;;;;4863671;29;19920;-74
2022/04/10 03:40:15;;;;;;;;;;;22.10;99.90;;;;;;4863481;29;19912;-74
2022/04/10 03:42:42;;;;;;;;;;;22.10;99.90;;;;;;4863691;29;19913;-75
2022/04/10 03:45:09;;;;;;;;;;;22.20;99.90;;;;;;4863658;29;19919;-75
2022/04/10 03:47:36;;;;;;;;;;;22.30;99.90;;;;;;4863522;29;20010;-75
2022/04/10 03:50:04;;;;;;;;;;;22.40;99.90;;;;;;4863876;29;19919;-75
2022/04/10 03:52:31;;;;;;;;;;;22.40;99.90;;;;;;4863605;29;19919;-75
2022/04/10 03:54:58;;;;;;;;;;;22.30;99.90;;;;;;4863313;29;19988;-75
2022/04/10 03:57:24;;;;;;;;;;;22.20;99.90;;;;;;4863405;29;20372;-75
2022/04/10 03:59:51;;;;;;;;;;;22.20;99.90;;;;;;4863300;29;19912;-73
2022/04/10 04:02:18;;;;;;;;;;;22.20;99.90;;;;;;4863344;29;19924;-74
2022/04/10 04:04:44;;;;;;;;;;;22.20;99.90;;;;;;4863444;29;19916;-74
2022/04/10 04:07:12;;;;;;;;;;;22.10;99.90;;;;;;4863299;29;19912;-74
2022/04/10 04:09:39;;;;;;;;;;;22.20;99.90;;;;;;4863008;29;19916;-74
2022/04/10 04:12:06;;;;;;;;;;;22.30;99.90;;;;;;4863232;29;19912;-73
2022/04/10 04:14:32;;;;;;;;;;;22.30;99.90;;;;;;4863848;29;19917;-73
2022/04/10 04:16:59;;;;;;;;;;;22.40;99.90;;;;;;4863215;29;20355;-74
2022/04/10 04:19:25;;;;;;;;;;;22.30;99.90;;;;;;4861656;29;19964;-74
2022/04/10 04:21:52;;;;;;;;;;;22.30;99.90;;;;;;4861638;29;20382;-74
2022/04/10 04:24:19;;;;;;;;;;;22.40;99.90;;;;;;4862973;29;19916;-75
2022/04/10 04:26:46;;;;;;;;;;;22.30;99.90;;;;;;4862606;29;19943;-74
2022/04/10 04:29:12;;;;;;;;;;;22.30;99.90;;;;;;4863046;29;19920;-74
2022/04/10 04:31:39;;;;;;;;;;;22.40;99.90;;;;;;4862847;29;19919;-74
2022/04/10 04:34:07;;;;;;;;;;;22.30;99.90;;;;;;4863078;29;20389;-74
2022/04/10 04:36:33;;;;;;;;;;;22.30;99.90;;;;;;4862552;29;20327;-74
2022/04/10 04:39:00;;;;;;;;;;;22.30;99.90;;;;;;4862896;29;19923;-74
2022/04/10 04:41:27;;;;;;;;;;;22.40;99.90;;;;;;4862700;29;20053;-74
2022/04/10 04:43:53;;;;;;;;;;;22.50;99.90;;;;;;4862578;29;19913;-74
2022/04/10 04:46:20;;;;;;;;;;;22.50;99.90;;;;;;4861680;29;20010;-74
2022/04/10 04:48:46;;;;;;;;;;;22.50;99.90;;;;;;4862683;29;20342;-74
2022/04/10 04:51:16;;;;;;;;;;;22.60;99.90;;;;;;4861948;29;19966;-74
2022/04/10 04:53:43;;;;;;;;;;;22.50;99.90;;;;;;4862887;29;19995;-74
2022/04/10 04:56:09;;;;;;;;;;;22.40;99.90;;;;;;4862184;29;20272;-74
2022/04/10 04:58:36;;;;;;;;;;;22.30;99.90;;;;;;4862544;29;19996;-75
2022/04/10 05:01:03;;;;;;;;;;;22.40;99.90;;;;;;4862631;29;19960;-75
2022/04/10 05:03:30;;;;;;;;;;;22.30;99.90;;;;;;4862073;29;20403;-74
2022/04/10 05:05:57;;;;;;;;;;;22.40;99.90;;;;;;4861803;29;20281;-75
2022/04/10 05:08:23;;;;;;;;;;;22.30;99.90;;;;;;4862261;29;19941;-75
2022/04/10 05:10:50;;;;;;;;;;;22.30;99.90;;;;;;4862204;29;20355;-75
2022/04/10 05:13:16;;;;;;;;;;;22.20;99.90;;;;;;4862426;29;19951;-75
2022/04/10 05:15:43;;;;;;;;;;;22.30;99.90;;;;;;4862174;29;20284;-75
2022/04/10 05:18:10;;;;;;;;;;;22.30;99.90;;;;;;4862254;29;19999;-75
2022/04/10 05:20:37;;;;;;;;;;;22.30;99.90;;;;;;4861663;29;19918;-75
2022/04/10 05:23:04;;;;;;;;;;;22.20;99.90;;;;;;4862126;29;20004;-75
2022/04/10 05:25:30;;;;;;;;;;;22.20;99.90;;;;;;4861754;29;19960;-75
2022/04/10 05:27:57;;;;;;;;;;;22.20;99.90;;;;;;4862048;29;19913;-75
2022/04/10 05:30:24;;;;;;;;;;;22.20;99.90;;;;;;4862033;29;19912;-75
2022/04/10 05:32:50;;;;;;;;;;;22.20;99.90;;;;;;4862050;29;19918;-75
2022/04/10 05:35:20;;;;;;;;;;;22.20;99.90;;;;;;4861989;29;19920;-75
2022/04/10 05:37:47;;;;;;;;;;;22.10;99.90;;;;;;4859786;29;20019;-75
2022/04/10 05:40:13;;;;;;;;;;;22.10;99.90;;;;;;4861682;29;19912;-76
2022/04/10 05:42:44;;;;;;;;;;;22.00;99.90;;;;;;4861796;29;19923;-75
2022/04/10 05:45:10;;;;;;;;;;;22.00;99.90;;;;;;4861721;29;19913;-76
2022/04/10 05:47:41;;;;;;;;;;;22.00;99.90;;;;;;4861434;29;19912;-75
2022/04/10 05:50:09;;;;;;;;;;;22.00;99.90;;;;;;4861616;29;19912;-75
2022/04/10 05:52:39;;;;;;;;;;;22.00;99.90;;;;;;4861238;29;19967;-75
2022/04/10 05:55:07;;;;;;;;;;;22.00;99.90;;;;;;4861441;29;20371;-75
2022/04/10 05:57:33;;;;;;;;;;;22.00;99.90;;;;;;4860962;29;19943;-75
2022/04/10 06:00:00;;;;;;;;;;;22.00;99.90;;;;;;4861651;29;20006;-75
2022/04/10 06:02:27;;;;;;;;;;;22.00;99.90;;;;;;4861215;29;20389;-75
2022/04/10 06:04:55;;;;;;;;;;;22.00;99.90;;;;;;4861411;29;19968;-75
2022/04/10 06:07:22;;;;;;;;;;;22.00;99.90;;;;;;4860998;29;19951;-75
2022/04/10 06:09:49;;;;;;;;;;;21.90;99.90;;;;;;4860941;29;19912;-75
2022/04/10 06:12:15;;;;;;;;;;;21.90;99.90;;;;;;4861138;29;19912;-75
2022/04/10 06:14:42;;;;;;;;;;;21.90;99.90;;;;;;4861354;29;20019;-75
2022/04/10 06:17:09;;;;;;;;;;;21.80;99.90;;;;;;4861131;29;19924;-75
2022/04/10 06:19:35;;;;;;;;;;;21.80;99.90;;;;;;4860637;29;19941;-75
2022/04/10 06:22:02;;;;;;;;;;;21.80;99.90;;;;;;4861417;29;19912;-75
2022/04/10 06:24:29;;;;;;;;;;;21.80;99.90;;;;;;4861090;29;19912;-75
2022/04/10 06:26:56;;;;;;;;;;;21.80;99.90;;;;;;4861289;29;19919;-75
2022/04/10 06:29:23;;;;;;;;;;;21.80;99.90;;;;;;4860968;29;19983;-75
2022/04/10 06:31:49;;;;;;;;;;;21.70;99.90;;;;;;4860923;29;19938;-75
2022/04/10 06:34:19;;;;;;;;;;;21.70;99.90;;;;;;4861015;29;19912;-75
2022/04/10 06:36:46;;;;;;;;;;;21.60;99.90;;;;;;4861001;29;20378;-75
2022/04/10 06:39:12;;;;;;;;;;;21.60;99.90;;;;;;4860819;29;19919;-75
2022/04/10 06:41:39;;;;;;;;;;;21.60;99.90;;;;;;4860800;29;19973;-75
2022/04/10 06:44:06;;;;;;;;;;;21.50;99.90;;;;;;4860960;29;19912;-75
2022/04/10 06:46:32;;;;;;;;;;;21.50;99.90;;;;;;4860969;29;20291;-75
2022/04/10 06:48:59;;;;;;;;;;;21.50;99.90;;;;;;4860954;29;19912;-75
2022/04/10 06:51:26;;;;;;;;;;;21.50;99.90;;;;;;4860739;29;19946;-75
2022/04/10 06:53:52;;;;;;;;;;;21.50;99.90;;;;;;4860466;29;20008;-75
2022/04/10 06:56:19;;;;;;;;;;;21.50;99.90;;;;;;4860684;29;20281;-76
2022/04/10 06:58:46;;;;;;;;;;;21.40;99.90;;;;;;4860611;29;20069;-75
2022/04/10 07:01:12;;;;;;;;;;;21.40;99.90;;;;;;4860762;29;19912;-75
2022/04/10 07:03:39;;;;;;;;;;;21.30;99.90;;;;;;4859039;29;19936;-75
2022/04/10 07:06:06;;;;;;;;;;;21.30;99.90;;;;;;4860868;29;19912;-74
2022/04/10 07:08:33;;;;;;;;;;;21.30;99.90;;;;;;4861522;29;19977;-75
2022/04/10 07:11:00;;;;;;;;;;;21.20;99.90;;;;;;4864303;29;20377;-76
2022/04/10 07:13:26;;;;;;;;;;;21.20;99.90;;;;;;4864232;29;19916;-75
2022/04/10 07:15:53;;;;;;;;;;;21.20;99.90;;;;;;4864108;29;19912;-75
2022/04/10 07:18:20;;;;;;;;;;;21.20;99.90;;;;;;4864145;29;19972;-75
2022/04/10 07:20:46;;;;;;;;;;;21.20;99.90;;;;;;4863041;29;19916;-75
2022/04/10 07:25:58;;;;;;;;;;;21.10;99.90;;;;;;4864048;29;19944;-75
2022/04/10 07:28:24;;;;;;;;;;;21.10;99.90;;;;;;4864214;29;19916;-75
2022/04/10 07:30:51;;;;;;;;;;;21.10;99.90;;;;;;4863997;29;19912;-75
2022/04/10 07:33:18;;;;;;;;;;;21.10;99.90;;;;;;4863892;29;19912;-75
2022/04/10 07:35:45;;;;;;;;;;;21.00;99.90;;;;;;4863739;29;20027;-75
2022/04/10 07:38:11;;;;;;;;;;;21.00;99.90;;;;;;4863761;29;20002;-74
2022/04/10 07:40:38;;;;;;;;;;;21.00;99.90;;;;;;4863798;29;19912;-75
2022/04/10 07:43:05;;;;;;;;;;;21.00;99.90;;;;;;4864004;29;20011;-75
2022/04/10 07:48:16;;;;;;;;;;;20.90;99.90;;;;;;4864088;29;19919;-75
2022/04/10 07:50:43;;;;;;;;;;;20.90;99.90;;;;;;4863774;29;19920;-75
2022/04/10 07:53:10;;;;;;;;;;;20.90;99.90;;;;;;4863476;29;20341;-75
2022/04/10 07:55:36;;;;;;;;;;;20.80;99.90;;;;;;4863285;29;19948;-73
2022/04/10 07:58:03;;;;;;;;;;;20.80;99.90;;;;;;4863605;29;19930;-74
2022/04/10 08:00:32;;;;;;;;;;;20.80;99.90;;;;;;4863555;29;19922;-75
2022/04/10 08:03:02;;;;;;;;;;;20.70;99.90;;;;;;4861887;29;20295;-75
2022/04/10 08:05:29;;;;;;;;;;;20.70;99.90;;;;;;4863423;29;19943;-75
2022/04/10 08:07:56;;;;;;;;;;;20.70;99.90;;;;;;4862719;29;19963;-75
2022/04/10 08:10:22;;;;;;;;;;;20.70;99.90;;;;;;4863359;29;19913;-75
2022/04/10 08:12:49;;;;;;;;;;;20.60;99.90;;;;;;4863625;29;19912;-75
2022/04/10 08:15:15;;;;;;;;;;;20.60;99.90;;;;;;4863580;29;19920;-75
2022/04/10 08:17:42;;;;;;;;;;;20.60;99.90;;;;;;4863240;29;19920;-74
2022/04/10 08:20:09;;;;;;;;;;;20.50;99.90;;;;;;4863035;29;19912;-75
2022/04/10 08:22:36;;;;;;;;;;;20.50;99.90;;;;;;4862976;29;19912;-75
2022/04/10 08:25:04;;;;;;;;;;;20.50;99.90;;;;;;4863322;29;20427;-75
2022/04/10 08:27:31;;;;;;;;;;;20.50;99.90;;;;;;4863083;29;20003;-74
2022/04/10 08:29:58;;;;;;;;;;;20.50;99.90;;;;;;4863382;29;19912;-75
2022/04/10 08:32:25;;;;;;;;;;;20.50;99.90;;;;;;4863268;29;19912;-74
2022/04/10 08:34:52;;;;;;;;;;;20.50;99.90;;;;;;4863281;29;20352;-75
2022/04/10 08:37:19;;;;;;;;;;;20.50;99.90;;;;;;4862583;29;19920;-74
2022/04/10 08:39:46;;;;;;;;;;;20.50;99.90;;;;;;4862679;29;19920;-74
2022/04/10 08:42:12;;;;;;;;;;;20.40;99.90;;;;;;4863062;29;20309;-74
2022/04/10 08:44:39;;;;;;;;;;;20.40;99.90;;;;;;4862995;29;20291;-74
2022/04/10 08:47:06;;;;;;;;;;;20.30;99.90;;;;;;4863146;29;19912;-74
2022/04/10 08:49:33;;;;;;;;;;;20.30;99.90;;;;;;4863176;29;19912;-74
2022/04/10 08:52:00;;;;;;;;;;;20.30;99.90;;;;;;4862823;29;19923;-74
2022/04/10 08:54:27;;;;;;;;;;;20.30;99.90;;;;;;4863645;29;19912;-74
2022/04/10 08:56:55;;;;;;;;;;;20.20;99.90;;;;;;4863457;29;19920;-74
2022/04/10 08:59:22;;;;;;;;;;;20.20;99.90;;;;;;4863241;29;19956;-74
2022/04/10 09:01:56;;;;;;;;;;;20.20;99.90;;;;;;4862024;29;19912;-74
2022/04/10 09:04:23;;;;;;;;;;;20.20;99.90;;;;;;4862888;29;19920;-74
2022/04/10 09:07:03;;;;;;;;;;;20.10;99.90;;;;;;4862784;29;20019;-74
2022/04/10 09:09:33;;;;;;;;;;;20.10;99.90;;;;;;4862566;29;19916;-73
2022/04/10 09:12:00;;;;;;;;;;;20.10;99.90;;;;;;4862632;29;20414;-74
2022/04/10 09:14:29;;;;;;;;;;;20.10;99.90;;;;;;4864488;29;19916;-74
2022/04/10 09:17:14;;;;;;;;;;;20.00;99.90;;;;;;4868037;29;19963;-73
2022/04/10 09:19:53;;;;;;;;;;;20.10;99.90;;;;;;4862201;29;19920;-74
2022/04/10 09:22:21;;;;;;;;;;;20.10;99.90;;;;;;4862507;29;19916;-74
2022/04/10 09:25:03;;;;;;;;;;;20.10;99.90;;;;;;4862170;29;20360;-74
2022/04/10 09:27:33;;;;;;;;;;;20.10;99.90;;;;;;4862279;29;19959;-73
2022/04/10 09:30:00;;;;;;;;;;;20.10;99.90;;;;;;4863672;29;19920;-75
2022/04/10 09:32:47;;;;;;;;;;;20.10;99.90;;;;;;4873216;29;19911;-74
2022/04/10 09:35:15;;;;;;;;;;;20.20;99.90;;;;;;4877648;29;20328;-73
2022/04/10 09:37:42;;;;;;;;;;;20.20;99.90;;;;;;4877634;29;20439;-74
2022/04/10 09:40:24;;;;;;;;;;;20.20;99.90;;;;;;4878083;29;19918;-73
2022/04/10 09:42:58;;;;;;;;;;;20.20;99.90;;;;;;4877404;29;19911;-73
2022/04/10 09:45:33;;;;;;;;;;;20.20;99.90;;;;;;4877758;29;19912;-73
2022/04/10 09:48:23;;;;;;;;;;;20.20;99.90;;;;;;4877578;29;19920;-73
2022/04/10 09:50:52;;;;;;;;;;;20.20;99.90;;;;;;4867903;29;19999;-73
2022/04/10 09:53:19;;;;;;;;;;;20.10;99.90;;;;;;4877399;29;20264;-74
2022/04/10 09:55:51;;;;;;;;;;;20.10;99.90;;;;;;4876894;29;19980;-74
2022/04/10 09:58:19;;;;;;;;;;;20.10;99.90;;;;;;4877612;29;20425;-73
2022/04/10 10:00:47;;;;;;;;;;;20.10;99.90;;;;;;4877493;29;19915;-74
2022/04/10 10:03:14;;;;;;;;;;;20.10;99.90;;;;;;4877295;29;20011;-73
2022/04/10 10:05:41;;;;;;;;;;;20.00;99.90;;;;;;4877039;29;20002;-74
2022/04/10 10:08:08;;;;;;;;;;;20.10;99.90;;;;;;4876813;29;19986;-75
2022/04/10 10:10:36;;;;;;;;;;;20.00;99.90;;;;;;4877076;29;19916;-73
2022/04/10 10:13:05;;;;;;;;;;;20.00;99.90;;;;;;4877446;29;20287;-74
2022/04/10 10:15:33;;;;;;;;;;;20.00;99.90;;;;;;4877008;29;20047;-74
2022/04/10 10:18:01;;;;;;;;;;;19.90;99.90;;;;;;4877521;29;20405;-73
2022/04/10 10:20:28;;;;;;;;;;;19.90;99.90;;;;;;4877454;29;20559;-74
2022/04/10 10:22:55;;;;;;;;;;;19.90;99.90;;;;;;4876765;29;19912;-74
2022/04/10 10:25:27;;;;;;;;;;;19.90;99.90;;;;;;4877120;29;19920;-75
2022/04/10 10:27:57;;;;;;;;;;;19.80;99.90;;;;;;4876900;29;19967;-74
2022/04/10 10:30:42;;;;;;;;;;;19.80;99.90;;;;;;4877113;29;19919;-74
2022/04/10 10:33:19;;;;;;;;;;;19.80;99.90;;;;;;4877008;29;19919;-74
2022/04/10 10:35:53;;;;;;;;;;;19.80;99.90;;;;;;4876350;29;19916;-74
2022/04/10 10:38:21;;;;;;;;;;;19.80;99.90;;;;;;4877112;29;19927;-75
2022/04/10 10:40:51;;;;;;;;;;;19.80;99.90;;;;;;4877049;29;19943;-74
2022/04/10 10:43:20;;;;;;;;;;;19.80;99.90;;;;;;4876916;29;19964;-74
2022/04/10 10:45:49;;;;;;;;;;;19.80;99.90;;;;;;4876663;29;19912;-74
2022/04/10 10:48:24;;;;;;;;;;;19.80;99.90;;;;;;4876403;29;19995;-74
2022/04/10 10:50:52;;;;;;;;;;;19.80;99.90;;;;;;4876993;29;19916;-74
2022/04/10 10:53:38;;;;;;;;;;;19.90;99.90;;;;;;4876739;29;19915;-74
2022/04/10 10:56:05;;;;;;;;;;;19.90;99.90;;;;;;4859853;29;19919;-74
2022/04/10 10:58:32;;;;;;;;;;;19.90;99.90;;;;;;4876753;29;19928;-74
2022/04/10 11:01:05;;;;;;;;;;;19.80;99.90;;;;;;4876622;29;19911;-74
2022/04/10 11:03:31;;;;;;;;;;;19.80;99.90;;;;;;4876476;29;19924;-74
2022/04/10 11:06:15;;;;;;;;;;;19.80;99.90;;;;;;4876732;29;19915;-74
2022/04/10 11:08:41;;;;;;;;;;;19.80;99.90;;;;;;4876760;29;19986;-74
2022/04/10 11:11:08;;;;;;;;;;;19.80;99.90;;;;;;4876844;29;20451;-74
2022/04/10 11:13:38;;;;;;;;;;;19.70;99.90;;;;;;4876295;29;20001;-74
2022/04/10 11:16:12;;;;;;;;;;;19.80;99.90;;;;;;4876494;29;19912;-74
2022/04/10 11:18:43;;;;;;;;;;;19.80;99.90;;;;;;4876752;29;19939;-74
2022/04/10 11:21:15;;;;;;;;;;;19.70;99.90;;;;;;4876759;29;19916;-74
2022/04/10 11:23:45;;;;;;;;;;;19.70;99.90;;;;;;4876267;29;20015;-74
2022/04/10 11:26:21;;;;;;;;;;;19.70;99.90;;;;;;4876340;29;19915;-74
2022/04/10 11:29:07;;;;;;;;;;;19.70;99.90;;;;;;4876596;29;19912;-75
2022/04/10 11:31:48;;;;;;;;;;;19.70;99.90;;;;;;4876462;29;20306;-73
2022/04/10 11:34:19;;;;;;;;;;;19.60;99.90;;;;;;4877114;29;19919;-74
2022/04/10 11:36:52;;;;;;;;;;;19.70;99.90;;;;;;4876751;29;20007;-74
2022/04/10 11:39:29;;;;;;;;;;;19.70;99.90;;;;;;4876114;29;19920;-74
2022/04/10 11:42:15;;;;;;;;;;;19.70;99.90;;;;;;4876641;29;19959;-73
2022/04/10 11:44:42;;;;;;;;;;;19.70;99.90;;;;;;4877207;29;19912;-75
2022/04/10 11:47:12;;;;;;;;;;;19.60;99.90;;;;;;4877185;29;19959;-74
2022/04/10 11:49:38;;;;;;;;;;;19.60;99.90;;;;;;4876845;29;19912;-73
2022/04/10 11:52:07;;;;;;;;;;;19.60;99.90;;;;;;4876837;29;20379;-74
2022/04/10 11:54:36;;;;;;;;;;;19.60;99.90;;;;;;4877562;29;19923;-74
2022/04/10 11:57:06;;;;;;;;;;;19.60;99.90;;;;;;4880258;29;19920;-73
2022/04/10 11:59:37;;;;;;;;;;;19.60;99.90;;;;;;4880023;29;19912;-73
2022/04/10 12:02:04;;;;;;;;;;;19.60;99.90;;;;;;4879986;29;20379;-73
2022/04/10 12:04:35;;;;;;;;;;;19.50;99.90;;;;;;4880287;29;20226;-73
2022/04/10 12:07:15;;;;;;;;;;;19.60;99.90;;;;;;4879589;29;19967;-74
2022/04/10 12:09:42;;;;;;;;;;;19.60;99.90;;;;;;4879696;29;19912;-74
2022/04/10 12:12:09;;;;;;;;;;;19.60;99.90;;;;;;4879681;29;19912;-74
2022/04/10 12:14:35;;;;;;;;;;;19.50;99.90;;;;;;4879841;29;19959;-73
2022/04/10 12:17:02;;;;;;;;;;;19.50;99.90;;;;;;4879793;29;19920;-73
2022/04/10 12:19:35;;;;;;;;;;;19.50;99.90;;;;;;4879476;29;19934;-73
2022/04/10 12:22:03;;;;;;;;;;;19.50;99.90;;;;;;4879486;29;20256;-74
2022/04/10 12:24:30;;;;;;;;;;;19.50;99.90;;;;;;4879785;29;19916;-73
2022/04/10 12:26:57;;;;;;;;;;;19.50;99.90;;;;;;4879552;29;19919;-73
2022/04/10 12:29:24;;;;;;;;;;;19.50;99.90;;;;;;4879671;29;19919;-73
2022/04/10 12:31:54;;;;;;;;;;;19.50;99.90;;;;;;4879279;29;20364;-73
2022/04/10 12:34:21;;;;;;;;;;;19.40;99.90;;;;;;4879677;29;19962;-73
2022/04/10 12:36:51;;;;;;;;;;;19.40;99.90;;;;;;4879263;29;20431;-73
2022/04/10 12:39:25;;;;;;;;;;;19.40;99.90;;;;;;4879552;29;19916;-74
2022/04/10 12:42:20;;;;;;;;;;;19.40;99.90;;;;;;4879343;29;20352;-74
2022/04/10 12:44:57;;;;;;;;;;;19.40;99.90;;;;;;4877691;29;20375;-74
2022/04/10 12:47:43;;;;;;;;;;;19.40;99.90;;;;;;4879312;29;19916;-74
2022/04/10 12:50:10;;;;;;;;;;;19.40;99.90;;;;;;4879255;29;19967;-74
2022/04/10 12:52:41;;;;;;;;;;;19.40;99.90;;;;;;4862437;29;19912;-73
2022/04/10 12:55:19;;;;;;;;;;;19.40;99.90;;;;;;4879264;29;19915;-73
2022/04/10 12:58:07;;;;;;;;;;;19.40;99.90;;;;;;4878696;29;19935;-73
2022/04/10 13:00:44;;;;;;;;;;;19.40;99.90;;;;;;4879229;29;19912;-73
2022/04/10 13:03:23;;;;;;;;;;;19.40;99.90;;;;;;4879002;29;20272;-73
2022/04/10 13:05:57;;;;;;;;;;;19.30;99.90;;;;;;4878104;29;19965;-73
2022/04/10 13:08:25;;;;;;;;;;;19.30;99.90;;;;;;4879008;29;20362;-73
2022/04/10 13:10:52;;;;;;;;;;;19.30;99.90;;;;;;4878764;29;20376;-73
2022/04/10 13:13:19;;;;;;;;;;;19.30;99.90;;;;;;4879007;29;20363;-73
2022/04/10 13:15:46;;;;;;;;;;;19.30;99.90;;;;;;4878873;29;19912;-73
2022/04/10 13:18:12;;;;;;;;;;;19.30;99.90;;;;;;4878555;29;19920;-73
2022/04/10 13:20:39;;;;;;;;;;;19.30;99.90;;;;;;4878827;29;19946;-73
2022/04/10 13:23:06;;;;;;;;;;;19.30;99.90;;;;;;4878754;29;20359;-73
2022/04/10 13:25:35;;;;;;;;;;;19.30;99.90;;;;;;4878362;29;19916;-73
2022/04/10 13:28:02;;;;;;;;;;;19.30;99.90;;;;;;4878766;29;19959;-73
2022/04/10 13:30:29;;;;;;;;;;;19.30;99.90;;;;;;4878654;29;20010;-73
2022/04/10 13:32:59;;;;;;;;;;;19.20;99.90;;;;;;4878756;29;19912;-74
2022/04/10 13:35:26;;;;;;;;;;;19.20;99.90;;;;;;4878566;29;19919;-73
2022/04/10 13:37:52;;;;;;;;;;;19.10;99.90;;;;;;4877657;29;19920;-73
2022/04/10 13:40:19;;;;;;;;;;;19.10;99.90;;;;;;4878477;29;19915;-73
2022/04/10 13:42:47;;;;;;;;;;;19.00;99.90;;;;;;4878361;29;19911;-73
2022/04/10 13:45:14;;;;;;;;;;;19.00;99.90;;;;;;4878495;29;19956;-73
2022/04/10 13:47:40;;;;;;;;;;;19.00;99.90;;;;;;4878108;29;19994;-73
2022/04/10 13:50:08;;;;;;;;;;;18.90;99.90;;;;;;4877790;29;19971;-73
2022/04/10 13:52:35;;;;;;;;;;;19.00;99.90;;;;;;4878033;29;20319;-73
2022/04/10 13:55:02;;;;;;;;;;;19.00;99.90;;;;;;4878115;29;20010;-73
2022/04/10 13:57:29;;;;;;;;;;;19.00;99.90;;;;;;4878063;29;19927;-74
2022/04/10 13:59:55;;;;;;;;;;;19.00;99.90;;;;;;4878032;29;19911;-74
2022/04/10 14:02:22;;;;;;;;;;;18.90;99.90;;;;;;4878014;29;20391;-74
2022/04/10 14:04:49;;;;;;;;;;;18.90;99.90;;;;;;4877771;29;20380;-74
2022/04/10 14:07:15;;;;;;;;;;;19.00;99.90;;;;;;4877995;29;19922;-74
2022/04/10 14:09:42;;;;;;;;;;;18.90;99.90;;;;;;4878036;29;19934;-74
2022/04/10 14:12:09;;;;;;;;;;;18.90;99.90;;;;;;4861323;29;20261;-74
2022/04/10 14:14:36;;;;;;;;;;;18.90;99.90;;;;;;4877812;29;19915;-73
2022/04/10 14:17:04;;;;;;;;;;;18.90;99.90;;;;;;4877175;29;19955;-74
2022/04/10 14:19:31;;;;;;;;;;;18.90;99.90;;;;;;4877561;29;20580;-74
2022/04/10 14:21:57;;;;;;;;;;;18.90;99.90;;;;;;4877628;29;19955;-73
2022/04/10 14:24:24;;;;;;;;;;;18.90;99.90;;;;;;4877919;29;20010;-74
2022/04/10 14:26:51;;;;;;;;;;;18.90;99.90;;;;;;4877865;29;20007;-75
2022/04/10 14:29:17;;;;;;;;;;;18.90;99.90;;;;;;4877542;29;19915;-74
2022/04/10 14:31:46;;;;;;;;;;;18.90;99.90;;;;;;4877427;29;19918;-75